createdAt,value
2019-05-18T00:00:04.222Z,985.21
2019-05-18T00:01:04.206Z,985.19
2019-05-18T00:02:04.195Z,985.18
2019-05-18T00:03:04.187Z,985.17
2019-05-18T00:04:04.172Z,985.03
2019-05-18T00:05:04.160Z,985.11
2019-05-18T00:06:04.154Z,985.06
2019-05-18T00:07:04.141Z,985.05
2019-05-18T00:08:04.129Z,985.12
2019-05-18T00:09:04.126Z,985.16
2019-05-18T00:10:04.106Z,985.15
2019-05-18T00:11:04.093Z,985.21
2019-05-18T00:12:04.093Z,985.16
2019-05-18T00:13:04.077Z,985.10
2019-05-18T00:14:04.062Z,985.14
2019-05-18T00:15:04.050Z,985.21
2019-05-18T00:16:04.045Z,985.13
2019-05-18T00:17:04.028Z,985.14
2019-05-18T00:18:04.018Z,985.14
2019-05-18T00:19:04.006Z,985.14
2019-05-18T00:20:03.993Z,985.17
2019-05-18T00:21:03.985Z,985.13
2019-05-18T00:22:03.973Z,985.07
2019-05-18T00:23:03.965Z,985.11
2019-05-18T00:24:03.963Z,985.14
2019-05-18T00:25:03.942Z,985.14
2019-05-18T00:26:03.930Z,985.15
2019-05-18T00:27:03.918Z,985.15
2019-05-18T00:28:03.909Z,985.14
2019-05-18T00:29:03.899Z,985.13
2019-05-18T00:30:03.884Z,985.14
2019-05-18T00:31:03.874Z,985.19
2019-05-18T00:32:03.919Z,985.12
2019-05-18T00:33:03.851Z,985.11
2019-05-18T00:34:03.843Z,985.13
2019-05-18T00:35:03.831Z,985.11
2019-05-18T00:36:03.821Z,985.11
2019-05-18T00:37:03.804Z,985.14
2019-05-18T00:38:03.797Z,985.12
2019-05-18T00:39:03.782Z,985.11
2019-05-18T00:40:03.790Z,985.12
2019-05-18T00:41:03.766Z,985.09
2019-05-18T00:42:03.751Z,985.06
2019-05-18T00:43:03.737Z,985.03
2019-05-18T00:44:03.735Z,985.00
2019-05-18T00:45:03.722Z,985.01
2019-05-18T00:46:03.712Z,985.00
2019-05-18T00:47:03.700Z,984.96
2019-05-18T00:48:03.688Z,985.01
2019-05-18T00:49:03.672Z,984.92
2019-05-18T00:50:03.663Z,984.98
2019-05-18T00:51:03.678Z,984.90
2019-05-18T00:52:03.638Z,984.87
2019-05-18T00:53:03.626Z,984.88
2019-05-18T00:54:03.619Z,984.82
2019-05-18T00:55:03.610Z,984.80
2019-05-18T00:56:03.610Z,984.81
2019-05-18T00:57:03.583Z,984.76
2019-05-18T00:58:03.570Z,984.71
2019-05-18T00:59:03.580Z,984.73
2019-05-18T01:00:03.549Z,984.74
2019-05-18T01:01:03.542Z,984.73
2019-05-18T01:02:03.524Z,984.76
2019-05-18T01:03:03.521Z,984.70
2019-05-18T01:04:03.502Z,984.69
2019-05-18T01:05:03.496Z,984.68
2019-05-18T01:06:03.482Z,984.60
2019-05-18T01:07:03.470Z,984.67
2019-05-18T01:08:03.459Z,984.64
2019-05-18T01:09:03.449Z,984.65
2019-05-18T01:10:03.438Z,984.62
2019-05-18T01:11:03.425Z,984.63
2019-05-18T01:12:03.417Z,984.58
2019-05-18T01:13:03.413Z,984.66
2019-05-18T01:14:03.395Z,984.55
2019-05-18T01:15:03.384Z,984.55
2019-05-18T01:16:03.371Z,984.55
2019-05-18T01:17:03.358Z,984.48
2019-05-18T01:18:03.349Z,984.46
2019-05-18T01:19:03.335Z,984.43
2019-05-18T01:20:03.327Z,984.41
2019-05-18T01:21:03.319Z,984.40
2019-05-18T01:22:03.304Z,984.37
2019-05-18T01:23:03.292Z,984.35
2019-05-18T01:24:03.287Z,984.28
2019-05-18T01:25:03.267Z,984.31
2019-05-18T01:26:03.260Z,984.39
2019-05-18T01:27:03.248Z,984.28
2019-05-18T01:28:03.238Z,984.29
2019-05-18T01:29:03.238Z,984.25
2019-05-18T01:30:03.241Z,984.21
2019-05-18T01:31:03.204Z,984.24
2019-05-18T01:32:03.196Z,984.26
2019-05-18T01:33:03.180Z,984.21
2019-05-18T01:34:03.172Z,984.26
2019-05-18T01:35:03.157Z,984.26
2019-05-18T01:36:03.146Z,984.27
2019-05-18T01:37:03.137Z,984.30
2019-05-18T01:38:03.164Z,984.28
2019-05-18T01:39:03.118Z,984.31
2019-05-18T01:40:03.102Z,984.26
2019-05-18T01:41:03.089Z,984.25
2019-05-18T01:42:03.082Z,984.25
2019-05-18T01:43:03.067Z,984.29
2019-05-18T01:44:03.054Z,984.24
2019-05-18T01:45:15.742Z,984.21
2019-05-18T01:46:04.034Z,984.16
2019-05-18T01:47:03.026Z,984.23
2019-05-18T01:48:13.444Z,984.14
2019-05-18T01:49:04.011Z,984.11
2019-05-18T01:50:02.994Z,984.09
2019-05-18T01:51:02.977Z,984.04
2019-05-18T01:52:03.005Z,984.05
2019-05-18T01:53:02.962Z,984.03
2019-05-18T01:54:02.946Z,983.97
2019-05-18T01:55:02.936Z,983.89
2019-05-18T01:56:02.923Z,983.97
2019-05-18T01:57:02.923Z,983.92
2019-05-18T01:58:02.900Z,983.95
2019-05-18T01:59:02.891Z,983.88
2019-05-18T02:00:03.055Z,983.84
2019-05-18T02:01:02.867Z,983.86
2019-05-18T02:02:02.872Z,983.77
2019-05-18T02:03:02.859Z,983.85
2019-05-18T02:04:02.829Z,983.82
2019-05-18T02:05:02.826Z,983.76
2019-05-18T02:06:02.815Z,983.71
2019-05-18T02:07:02.821Z,983.74
2019-05-18T02:08:02.791Z,983.76
2019-05-18T02:09:02.775Z,983.78
2019-05-18T02:10:02.825Z,983.75
2019-05-18T02:11:02.769Z,983.71
2019-05-18T02:12:02.743Z,983.74
2019-05-18T02:13:02.982Z,983.63
2019-05-18T02:14:02.732Z,983.69
2019-05-18T02:15:02.763Z,983.61
2019-05-18T02:16:02.708Z,983.57
2019-05-18T02:17:02.688Z,983.59
2019-05-18T02:18:02.685Z,983.59
2019-05-18T02:19:02.668Z,983.59
2019-05-18T02:20:02.656Z,983.60
2019-05-18T02:21:02.646Z,983.61
2019-05-18T02:22:02.629Z,983.60
2019-05-18T02:23:02.622Z,983.57
2019-05-18T02:24:02.625Z,983.56
2019-05-18T02:25:02.604Z,983.52
2019-05-18T02:26:02.587Z,983.50
2019-05-18T02:27:02.578Z,983.53
2019-05-18T02:28:02.566Z,983.49
2019-05-18T02:29:02.556Z,983.52
2019-05-18T02:30:02.561Z,983.52
2019-05-18T02:31:02.535Z,983.43
2019-05-18T02:32:02.522Z,983.50
2019-05-18T02:33:02.534Z,983.42
2019-05-18T02:34:02.506Z,983.39
2019-05-18T02:35:02.494Z,983.40
2019-05-18T02:36:02.479Z,983.42
2019-05-18T02:37:02.469Z,983.35
2019-05-18T02:38:02.460Z,983.32
2019-05-18T02:39:02.442Z,983.39
2019-05-18T02:40:02.444Z,983.34
2019-05-18T02:41:02.426Z,983.32
2019-05-18T02:42:02.409Z,983.23
2019-05-18T02:43:02.407Z,983.33
2019-05-18T02:44:02.392Z,983.30
2019-05-18T02:45:02.409Z,983.32
2019-05-18T02:46:02.364Z,983.15
2019-05-18T02:47:02.377Z,983.19
2019-05-18T02:48:02.347Z,983.21
2019-05-18T02:49:02.356Z,983.21
2019-05-18T02:50:02.323Z,983.15
2019-05-18T02:51:02.311Z,983.23
2019-05-18T02:52:02.301Z,983.28
2019-05-18T02:53:02.289Z,983.22
2019-05-18T02:54:02.274Z,983.20
2019-05-18T02:55:02.267Z,983.23
2019-05-18T02:56:02.258Z,983.16
2019-05-18T02:57:02.245Z,983.14
2019-05-18T02:58:02.232Z,983.03
2019-05-18T02:59:02.230Z,983.15
2019-05-18T03:00:02.215Z,983.11
2019-05-18T03:01:02.209Z,983.12
2019-05-18T03:02:02.190Z,983.13
2019-05-18T03:03:02.179Z,983.12
2019-05-18T03:04:02.184Z,983.08
2019-05-18T03:05:02.160Z,983.01
2019-05-18T03:06:02.147Z,983.01
2019-05-18T03:07:02.134Z,983.05
2019-05-18T03:08:02.124Z,982.99
2019-05-18T03:09:02.113Z,983.00
2019-05-18T03:10:02.101Z,982.93
2019-05-18T03:11:02.089Z,983.03
2019-05-18T03:12:02.076Z,982.97
2019-05-18T03:13:02.087Z,982.97
2019-05-18T03:14:02.058Z,982.93
2019-05-18T03:15:02.053Z,982.94
2019-05-18T03:16:02.056Z,982.98
2019-05-18T03:17:02.027Z,982.98
2019-05-18T03:18:02.011Z,982.95
2019-05-18T03:19:08.189Z,983.03
2019-05-18T03:20:03.005Z,982.91
2019-05-18T03:21:01.974Z,982.95
2019-05-18T03:22:01.979Z,982.96
2019-05-18T03:23:01.965Z,982.92
2019-05-18T03:24:01.942Z,982.93
2019-05-18T03:25:01.935Z,982.94
2019-05-18T03:26:01.928Z,982.90
2019-05-18T03:27:01.917Z,982.91
2019-05-18T03:28:01.907Z,982.85
2019-05-18T03:29:01.890Z,982.90
2019-05-18T03:30:01.935Z,982.93
2019-05-18T03:31:01.865Z,982.91
2019-05-18T03:32:01.879Z,982.88
2019-05-18T03:33:01.860Z,982.89
2019-05-18T03:34:01.837Z,982.90
2019-05-18T03:35:01.886Z,982.92
2019-05-18T03:36:01.821Z,982.88
2019-05-18T03:37:01.803Z,982.85
2019-05-18T03:38:01.794Z,982.86
2019-05-18T03:39:01.777Z,982.81
2019-05-18T03:40:01.770Z,982.86
2019-05-18T03:41:01.751Z,982.87
2019-05-18T03:42:01.751Z,982.85
2019-05-18T03:43:01.733Z,982.81
2019-05-18T03:44:01.727Z,982.76
2019-05-18T03:45:01.719Z,982.74
2019-05-18T03:46:01.696Z,982.70
2019-05-18T03:47:01.689Z,982.71
2019-05-18T03:48:01.680Z,982.67
2019-05-18T03:49:01.664Z,982.70
2019-05-18T03:50:01.657Z,982.80
2019-05-18T03:51:01.642Z,982.76
2019-05-18T03:52:01.648Z,982.78
2019-05-18T03:53:01.625Z,982.70
2019-05-18T03:54:01.612Z,982.75
2019-05-18T03:55:01.628Z,982.76
2019-05-18T03:56:01.584Z,982.76
2019-05-18T03:57:01.580Z,982.80
2019-05-18T03:58:01.567Z,982.76
2019-05-18T03:59:01.556Z,982.72
2019-05-18T04:00:01.539Z,982.72
2019-05-18T04:01:01.538Z,982.69
2019-05-18T04:02:01.521Z,982.73
2019-05-18T04:03:01.514Z,982.79
2019-05-18T04:04:01.497Z,982.79
2019-05-18T04:05:01.486Z,982.80
2019-05-18T04:06:01.502Z,982.80
2019-05-18T04:07:01.464Z,982.82
2019-05-18T04:08:01.451Z,982.82
2019-05-18T04:09:01.443Z,982.86
2019-05-18T04:10:01.464Z,982.83
2019-05-18T04:11:01.435Z,982.82
2019-05-18T04:12:01.415Z,982.89
2019-05-18T04:13:01.399Z,982.87
2019-05-18T04:14:01.389Z,982.81
2019-05-18T04:15:01.378Z,982.85
2019-05-18T04:16:01.363Z,982.83
2019-05-18T04:17:01.357Z,982.78
2019-05-18T04:18:01.342Z,982.79
2019-05-18T04:19:01.332Z,982.74
2019-05-18T04:20:01.319Z,982.74
2019-05-18T04:21:01.308Z,982.75
2019-05-18T04:22:01.299Z,982.74
2019-05-18T04:23:01.292Z,982.75
2019-05-18T04:24:01.279Z,982.74
2019-05-18T04:25:01.265Z,982.74
2019-05-18T04:26:01.255Z,982.74
2019-05-18T04:27:01.247Z,982.73
2019-05-18T04:28:01.233Z,982.77
2019-05-18T04:29:01.224Z,982.77
2019-05-18T04:30:01.212Z,982.67
2019-05-18T04:31:01.201Z,982.66
2019-05-18T04:32:01.186Z,982.73
2019-05-18T04:33:01.183Z,982.62
2019-05-18T04:34:01.167Z,982.66
2019-05-18T04:35:01.156Z,982.67
2019-05-18T04:36:01.219Z,982.62
2019-05-18T04:37:01.139Z,982.63
2019-05-18T04:38:01.126Z,982.64
2019-05-18T04:39:01.114Z,982.61
2019-05-18T04:40:01.149Z,982.66
2019-05-18T04:41:01.107Z,982.62
2019-05-18T04:42:01.081Z,982.62
2019-05-18T04:43:01.069Z,982.67
2019-05-18T04:44:01.061Z,982.63
2019-05-18T04:45:01.046Z,982.65
2019-05-18T04:46:01.037Z,982.66
2019-05-18T04:47:01.034Z,982.60
2019-05-18T04:48:01.013Z,982.60
2019-05-18T04:49:01.002Z,982.60
2019-05-18T04:50:05.293Z,982.54
2019-05-18T04:51:01.975Z,982.58
2019-05-18T04:52:00.968Z,982.59
2019-05-18T04:53:00.959Z,982.50
2019-05-18T04:54:00.946Z,982.59
2019-05-18T04:55:00.945Z,982.52
2019-05-18T04:56:00.924Z,982.54
2019-05-18T04:57:00.914Z,982.54
2019-05-18T04:58:00.900Z,982.44
2019-05-18T04:59:00.888Z,982.48
2019-05-18T05:00:00.877Z,982.44
2019-05-18T05:01:00.874Z,982.44
2019-05-18T05:02:00.875Z,982.49
2019-05-18T05:03:00.850Z,982.45
2019-05-18T05:04:00.977Z,982.44
2019-05-18T05:05:00.823Z,982.48
2019-05-18T05:06:00.814Z,982.44
2019-05-18T05:07:00.803Z,982.43
2019-05-18T05:08:00.797Z,982.48
2019-05-18T05:09:00.778Z,982.51
2019-05-18T05:10:00.765Z,982.50
2019-05-18T05:11:00.756Z,982.55
2019-05-18T05:12:00.746Z,982.51
2019-05-18T05:13:00.826Z,982.47
2019-05-18T05:14:00.735Z,982.46
2019-05-18T05:15:00.713Z,982.48
2019-05-18T05:16:00.703Z,982.53
2019-05-18T05:17:00.685Z,982.50
2019-05-18T05:18:00.678Z,982.46
2019-05-18T05:19:00.667Z,982.48
2019-05-18T05:20:00.660Z,982.43
2019-05-18T05:21:00.643Z,982.45
2019-05-18T05:22:00.636Z,982.45
2019-05-18T05:23:00.622Z,982.42
2019-05-18T05:24:00.686Z,982.39
2019-05-18T05:25:00.602Z,982.40
2019-05-18T05:26:00.584Z,982.38
2019-05-18T05:27:00.592Z,982.45
2019-05-18T05:28:00.566Z,982.37
2019-05-18T05:29:00.566Z,982.37
2019-05-18T05:30:00.542Z,982.40
2019-05-18T05:31:00.540Z,982.47
2019-05-18T05:32:00.535Z,982.47
2019-05-18T05:33:00.515Z,982.41
2019-05-18T05:34:00.534Z,982.45
2019-05-18T05:35:00.496Z,982.47
2019-05-18T05:36:00.537Z,982.47
2019-05-18T05:37:00.483Z,982.53
2019-05-18T05:38:00.471Z,982.53
2019-05-18T05:39:00.451Z,982.59
2019-05-18T05:40:00.440Z,982.61
2019-05-18T05:41:00.417Z,982.54
2019-05-18T05:42:00.412Z,982.61
2019-05-18T05:43:00.398Z,982.57
2019-05-18T05:44:00.390Z,982.61
2019-05-18T05:45:00.381Z,982.66
2019-05-18T05:46:00.367Z,982.62
2019-05-18T05:47:00.358Z,982.57
2019-05-18T05:48:00.343Z,982.59
2019-05-18T05:49:00.330Z,982.54
2019-05-18T05:50:00.330Z,982.58
2019-05-18T05:51:00.308Z,982.53
2019-05-18T05:52:00.302Z,982.56
2019-05-18T05:53:00.289Z,982.55
2019-05-18T05:54:00.278Z,982.58
2019-05-18T05:55:00.263Z,982.61
2019-05-18T05:56:00.255Z,982.56
2019-05-18T05:57:00.240Z,982.50
2019-05-18T05:58:00.232Z,982.46
2019-05-18T05:59:00.226Z,982.48
2019-05-18T06:00:00.211Z,982.47
2019-05-18T06:01:00.206Z,982.48
2019-05-18T06:02:00.189Z,982.56
2019-05-18T06:03:00.186Z,982.50
2019-05-18T06:04:00.168Z,982.45
2019-05-18T06:05:00.152Z,982.39
2019-05-18T06:06:00.138Z,982.43
2019-05-18T06:07:00.145Z,982.47
2019-05-18T06:08:00.119Z,982.40
2019-05-18T06:09:00.118Z,982.41
2019-05-18T06:10:00.121Z,982.53
2019-05-18T06:11:00.099Z,982.47
2019-05-18T06:12:00.078Z,982.53
2019-05-18T06:13:00.062Z,982.47
2019-05-18T06:14:00.058Z,982.50
2019-05-18T06:15:00.040Z,982.47
2019-05-18T06:16:00.035Z,982.43
2019-05-18T06:17:00.028Z,982.51
2019-05-18T06:18:00.010Z,982.52
2019-05-18T06:18:59.994Z,982.57
2019-05-18T06:19:59.981Z,982.52
2019-05-18T06:20:59.973Z,982.53
2019-05-18T06:21:59.963Z,982.54
2019-05-18T06:22:59.955Z,982.58
2019-05-18T06:23:59.938Z,982.63
2019-05-18T06:24:59.937Z,982.57
2019-05-18T06:25:59.921Z,982.65
2019-05-18T06:26:59.906Z,982.63
2019-05-18T06:27:59.901Z,982.54
2019-05-18T06:28:59.885Z,982.56
2019-05-18T06:29:59.876Z,982.54
2019-05-18T06:30:59.859Z,982.59
2019-05-18T06:31:59.851Z,982.69
2019-05-18T06:32:59.841Z,982.69
2019-05-18T06:33:59.829Z,982.79
2019-05-18T06:34:59.830Z,982.91
2019-05-18T06:35:59.812Z,982.94
2019-05-18T06:36:59.802Z,982.89
2019-05-18T06:37:59.796Z,982.87
2019-05-18T06:38:59.775Z,982.91
2019-05-18T06:39:59.759Z,982.90
2019-05-18T06:40:59.773Z,982.99
2019-05-18T06:41:59.759Z,982.99
2019-05-18T06:42:59.727Z,983.03
2019-05-18T06:43:59.720Z,982.98
2019-05-18T06:44:59.715Z,982.99
2019-05-18T06:45:59.700Z,983.10
2019-05-18T06:46:59.681Z,983.00
2019-05-18T06:47:59.687Z,983.03
2019-05-18T06:48:59.671Z,983.06
2019-05-18T06:49:59.655Z,983.06
2019-05-18T06:51:07.287Z,983.04
2019-05-18T06:52:00.641Z,983.10
2019-05-18T06:52:59.618Z,983.02
2019-05-18T06:53:59.620Z,983.11
2019-05-18T06:54:59.598Z,983.08
2019-05-18T06:55:59.588Z,982.99
2019-05-18T06:56:59.572Z,983.08
2019-05-18T06:57:59.571Z,983.10
2019-05-18T06:58:59.556Z,983.18
2019-05-18T06:59:59.545Z,983.16
2019-05-18T07:00:59.535Z,983.13
2019-05-18T07:01:59.520Z,983.25
2019-05-18T07:02:59.520Z,983.18
2019-05-18T07:03:59.505Z,983.17
2019-05-18T07:04:59.485Z,983.18
2019-05-18T07:05:59.472Z,983.13
2019-05-18T07:06:59.464Z,983.10
2019-05-18T07:07:59.446Z,983.08
2019-05-18T07:08:59.479Z,983.07
2019-05-18T07:09:59.449Z,983.07
2019-05-18T07:10:59.414Z,983.03
2019-05-18T07:11:59.406Z,983.14
2019-05-18T07:12:59.393Z,983.12
2019-05-18T07:13:59.461Z,983.09
2019-05-18T07:15:00.517Z,983.13
2019-05-18T07:15:59.363Z,983.11
2019-05-18T07:16:59.373Z,983.12
2019-05-18T07:17:59.339Z,983.09
2019-05-18T07:18:59.326Z,983.14
2019-05-18T07:19:59.317Z,983.12
2019-05-18T07:20:59.307Z,983.07
2019-05-18T07:21:59.549Z,983.08
2019-05-18T07:22:59.284Z,983.14
2019-05-18T07:23:59.268Z,983.04
2019-05-18T07:24:59.263Z,983.08
2019-05-18T07:25:59.258Z,983.13
2019-05-18T07:26:59.418Z,983.08
2019-05-18T07:27:59.229Z,983.12
2019-05-18T07:28:59.218Z,983.04
2019-05-18T07:29:59.215Z,983.03
2019-05-18T07:30:59.193Z,983.02
2019-05-18T07:31:59.396Z,983.03
2019-05-18T07:32:59.185Z,983.05
2019-05-18T07:33:59.168Z,983.10
2019-05-18T07:34:59.150Z,983.05
2019-05-18T07:35:59.146Z,982.97
2019-05-18T07:36:59.130Z,983.02
2019-05-18T07:37:59.118Z,982.99
2019-05-18T07:38:59.106Z,982.94
2019-05-18T07:39:59.123Z,982.95
2019-05-18T07:40:59.083Z,982.96
2019-05-18T07:41:59.069Z,982.97
2019-05-18T07:42:59.062Z,982.98
2019-05-18T07:43:59.058Z,982.91
2019-05-18T07:44:59.038Z,982.88
2019-05-18T07:45:59.025Z,982.88
2019-05-18T07:46:59.037Z,982.82
2019-05-18T07:47:59.008Z,982.87
2019-05-18T07:48:58.995Z,982.87
2019-05-18T07:49:58.989Z,982.84
2019-05-18T07:50:58.972Z,982.79
2019-05-18T07:51:58.968Z,982.89
2019-05-18T07:52:58.952Z,982.86
2019-05-18T07:53:58.938Z,982.92
2019-05-18T07:54:58.928Z,982.89
2019-05-18T07:55:58.916Z,982.84
2019-05-18T07:56:58.914Z,982.90
2019-05-18T07:57:58.936Z,982.92
2019-05-18T07:58:58.895Z,982.83
2019-05-18T07:59:58.906Z,982.91
2019-05-18T08:00:58.867Z,982.91
2019-05-18T08:01:58.852Z,982.88
2019-05-18T08:02:58.841Z,983.01
2019-05-18T08:03:58.833Z,982.99
2019-05-18T08:04:58.814Z,982.90
2019-05-18T08:05:58.814Z,982.90
2019-05-18T08:06:58.793Z,982.97
2019-05-18T08:07:58.782Z,983.01
2019-05-18T08:08:58.774Z,982.97
2019-05-18T08:09:58.765Z,982.97
2019-05-18T08:10:58.765Z,982.97
2019-05-18T08:11:58.738Z,982.94
2019-05-18T08:12:58.733Z,982.98
2019-05-18T08:13:58.711Z,982.97
2019-05-18T08:14:58.706Z,983.02
2019-05-18T08:15:58.697Z,982.98
2019-05-18T08:16:58.684Z,983.05
2019-05-18T08:17:58.670Z,983.02
2019-05-18T08:18:58.661Z,983.02
2019-05-18T08:19:58.647Z,982.97
2019-05-18T08:20:58.650Z,983.03
2019-05-18T08:21:58.637Z,982.97
2019-05-18T08:22:58.614Z,983.05
2019-05-18T08:23:58.602Z,983.04
2019-05-18T08:24:58.593Z,983.11
2019-05-18T08:25:58.579Z,983.17
2019-05-18T08:27:01.985Z,983.15
2019-05-18T08:27:58.587Z,983.21
2019-05-18T08:28:58.548Z,983.22
2019-05-18T08:29:58.541Z,983.21
2019-05-18T08:30:58.524Z,983.22
2019-05-18T08:31:58.523Z,983.17
2019-05-18T08:32:58.503Z,983.14
2019-05-18T08:33:58.493Z,983.18
2019-05-18T08:34:58.487Z,983.11
2019-05-18T08:35:58.465Z,983.13
2019-05-18T08:36:58.450Z,983.17
2019-05-18T08:37:58.458Z,982.99
2019-05-18T08:38:58.450Z,983.09
2019-05-18T08:39:58.425Z,983.02
2019-05-18T08:40:58.425Z,983.01
2019-05-18T08:41:58.403Z,983.06
2019-05-18T08:42:58.388Z,983.09
2019-05-18T08:43:58.396Z,983.05
2019-05-18T08:44:58.368Z,983.00
2019-05-18T08:45:58.376Z,983.06
2019-05-18T08:46:58.380Z,983.10
2019-05-18T08:47:58.341Z,983.14
2019-05-18T08:48:58.323Z,983.11
2019-05-18T08:49:58.310Z,983.12
2019-05-18T08:50:58.302Z,983.10
2019-05-18T08:52:07.773Z,983.08
2019-05-18T08:52:59.277Z,983.08
2019-05-18T08:53:58.265Z,983.03
2019-05-18T08:54:58.254Z,983.06
2019-05-18T08:55:58.239Z,983.05
2019-05-18T08:56:58.252Z,983.07
2019-05-18T08:57:58.223Z,983.09
2019-05-18T08:58:58.213Z,983.09
2019-05-18T08:59:58.213Z,983.02
2019-05-18T09:00:58.183Z,983.04
2019-05-18T09:01:58.178Z,983.06
2019-05-18T09:02:58.158Z,983.05
2019-05-18T09:03:58.153Z,983.13
2019-05-18T09:04:58.153Z,983.14
2019-05-18T09:05:58.135Z,983.11
2019-05-18T09:06:58.121Z,983.08
2019-05-18T09:07:58.112Z,983.01
2019-05-18T09:08:58.095Z,983.03
2019-05-18T09:09:58.085Z,983.00
2019-05-18T09:10:58.078Z,983.05
2019-05-18T09:11:58.060Z,983.05
2019-05-18T09:12:58.051Z,983.11
2019-05-18T09:13:58.052Z,983.04
2019-05-18T09:14:58.025Z,983.02
2019-05-18T09:15:58.023Z,983.04
2019-05-18T09:16:58.006Z,983.02
2019-05-18T09:17:57.997Z,983.05
2019-05-18T09:18:57.979Z,983.07
2019-05-18T09:19:57.986Z,983.12
2019-05-18T09:20:57.958Z,983.13
2019-05-18T09:21:57.955Z,983.12
2019-05-18T09:22:57.938Z,983.21
2019-05-18T09:23:57.945Z,983.20
2019-05-18T09:24:57.917Z,983.18
2019-05-18T09:25:57.900Z,983.23
2019-05-18T09:26:57.899Z,983.24
2019-05-18T09:28:33.937Z,983.24
2019-05-18T09:28:57.871Z,983.21
2019-05-18T09:29:57.856Z,983.23
2019-05-18T09:30:57.854Z,983.25
2019-05-18T09:31:57.850Z,983.28
2019-05-18T09:32:57.831Z,983.17
2019-05-18T09:33:57.816Z,983.18
2019-05-18T09:34:57.812Z,983.21
2019-05-18T09:35:57.799Z,983.22
2019-05-18T09:36:57.781Z,983.28
2019-05-18T09:37:57.779Z,983.29
2019-05-18T09:38:57.789Z,983.28
2019-05-18T09:39:57.759Z,983.31
2019-05-18T09:40:57.752Z,983.32
2019-05-18T09:41:57.727Z,983.30
2019-05-18T09:42:57.715Z,983.26
2019-05-18T09:43:57.709Z,983.38
2019-05-18T09:44:57.699Z,983.38
2019-05-18T09:45:57.681Z,983.41
2019-05-18T09:46:57.666Z,983.39
2019-05-18T09:47:57.659Z,983.36
2019-05-18T09:48:57.658Z,983.41
2019-05-18T09:49:57.644Z,983.44
2019-05-18T09:50:57.632Z,983.37
2019-05-18T09:51:57.619Z,983.38
2019-05-18T09:52:57.619Z,983.38
2019-05-18T09:53:57.625Z,983.42
2019-05-18T09:54:57.594Z,983.53
2019-05-18T09:55:57.582Z,983.57
2019-05-18T09:56:57.566Z,983.53
2019-05-18T09:57:57.551Z,983.55
2019-05-18T09:58:57.559Z,983.48
2019-05-18T09:59:57.533Z,983.50
2019-05-18T10:00:57.540Z,983.47
2019-05-18T10:01:57.503Z,983.52
2019-05-18T10:02:57.495Z,983.51
2019-05-18T10:03:57.488Z,983.54
2019-05-18T10:04:57.480Z,983.49
2019-05-18T10:05:57.470Z,983.43
2019-05-18T10:06:57.454Z,983.57
2019-05-18T10:07:57.438Z,983.56
2019-05-18T10:08:57.437Z,983.48
2019-05-18T10:09:57.449Z,983.51
2019-05-18T10:10:57.422Z,983.51
2019-05-18T10:11:57.401Z,983.51
2019-05-18T10:12:57.381Z,983.49
2019-05-18T10:13:57.368Z,983.57
2019-05-18T10:14:57.370Z,983.47
2019-05-18T10:15:57.355Z,983.58
2019-05-18T10:16:57.348Z,983.59
2019-05-18T10:17:57.334Z,983.65
2019-05-18T10:18:57.316Z,983.65
2019-05-18T10:19:57.326Z,983.58
2019-05-18T10:20:57.322Z,983.60
2019-05-18T10:21:57.320Z,983.65
2019-05-18T10:23:11.875Z,983.69
2019-05-18T10:23:58.264Z,983.70
2019-05-18T10:24:57.253Z,983.65
2019-05-18T10:25:57.244Z,983.74
2019-05-18T10:26:57.221Z,983.70
2019-05-18T10:27:57.216Z,983.75
2019-05-18T10:28:57.198Z,983.79
2019-05-18T10:29:57.205Z,983.74
2019-05-18T10:30:57.228Z,983.76
2019-05-18T10:31:57.170Z,983.74
2019-05-18T10:32:57.158Z,983.76
2019-05-18T10:33:57.152Z,983.72
2019-05-18T10:34:57.134Z,983.77
2019-05-18T10:35:57.127Z,983.79
2019-05-18T10:36:57.111Z,983.82
2019-05-18T10:37:57.108Z,983.85
2019-05-18T10:38:57.093Z,983.87
2019-05-18T10:39:57.081Z,983.80
2019-05-18T10:40:57.072Z,983.89
2019-05-18T10:41:57.058Z,983.89
2019-05-18T10:42:57.048Z,983.91
2019-05-18T10:43:57.119Z,983.90
2019-05-18T10:44:57.033Z,983.93
2019-05-18T10:45:57.015Z,983.88
2019-05-18T10:46:57.014Z,983.89
2019-05-18T10:47:57.022Z,983.90
2019-05-18T10:48:56.997Z,983.95
2019-05-18T10:49:56.980Z,983.89
2019-05-18T10:50:56.965Z,983.84
2019-05-18T10:51:56.948Z,983.86
2019-05-18T10:52:56.941Z,983.77
2019-05-18T10:53:56.929Z,983.83
2019-05-18T10:54:56.921Z,983.81
2019-05-18T10:55:56.907Z,983.82
2019-05-18T10:56:56.898Z,983.86
2019-05-18T10:57:56.892Z,983.80
2019-05-18T10:58:56.874Z,983.83
2019-05-18T10:59:56.862Z,983.88
2019-05-18T11:00:56.854Z,983.86
2019-05-18T11:01:56.858Z,983.94
2019-05-18T11:02:56.823Z,983.90
2019-05-18T11:03:56.812Z,983.84
2019-05-18T11:04:56.801Z,983.88
2019-05-18T11:05:56.793Z,983.86
2019-05-18T11:06:56.779Z,983.83
2019-05-18T11:07:56.768Z,983.90
2019-05-18T11:08:56.761Z,983.87
2019-05-18T11:09:56.750Z,983.87
2019-05-18T11:10:56.735Z,983.92
2019-05-18T11:11:56.729Z,983.92
2019-05-18T11:12:56.722Z,983.94
2019-05-18T11:13:56.700Z,983.91
2019-05-18T11:14:56.691Z,983.87
2019-05-18T11:15:56.685Z,983.91
2019-05-18T11:16:56.669Z,983.86
2019-05-18T11:17:56.669Z,983.84
2019-05-18T11:18:56.650Z,983.91
2019-05-18T11:19:56.637Z,983.88
2019-05-18T11:20:56.628Z,983.86
2019-05-18T11:21:56.613Z,983.81
2019-05-18T11:22:56.608Z,983.88
2019-05-18T11:23:56.601Z,983.89
2019-05-18T11:24:56.595Z,983.98
2019-05-18T11:25:56.576Z,984.00
2019-05-18T11:26:56.586Z,983.94
2019-05-18T11:27:56.559Z,983.97
2019-05-18T11:28:56.586Z,983.99
2019-05-18T11:29:56.530Z,984.10
2019-05-18T11:30:56.534Z,984.13
2019-05-18T11:31:56.511Z,984.14
2019-05-18T11:32:56.508Z,984.20
2019-05-18T11:33:56.491Z,984.13
2019-05-18T11:34:56.484Z,984.17
2019-05-18T11:35:56.473Z,984.13
2019-05-18T11:36:56.462Z,984.27
2019-05-18T11:37:56.458Z,984.60
2019-05-18T11:38:56.433Z,984.23
2019-05-18T11:39:56.428Z,984.25
2019-05-18T11:40:56.415Z,984.26
2019-05-18T11:41:56.399Z,984.29
2019-05-18T11:42:56.390Z,984.34
2019-05-18T11:43:56.389Z,984.35
2019-05-18T11:44:56.368Z,984.50
2019-05-18T11:45:56.360Z,984.30
2019-05-18T11:46:56.350Z,984.35
2019-05-18T11:47:56.346Z,984.32
2019-05-18T11:48:56.325Z,984.38
2019-05-18T11:49:56.325Z,984.33
2019-05-18T11:50:56.310Z,984.73
2019-05-18T11:51:56.295Z,984.41
2019-05-18T11:52:56.301Z,984.36
2019-05-18T11:53:58.529Z,984.37
2019-05-18T11:54:56.315Z,984.22
2019-05-18T11:55:56.253Z,984.21
2019-05-18T11:56:56.258Z,984.19
2019-05-18T11:57:56.237Z,984.15
2019-05-18T11:58:56.226Z,984.05
2019-05-18T11:59:56.223Z,984.13
2019-05-18T12:00:56.199Z,984.11
2019-05-18T12:01:56.196Z,984.12
2019-05-18T12:02:56.180Z,984.21
2019-05-18T12:03:56.168Z,984.14
2019-05-18T12:04:56.166Z,984.05
2019-05-18T12:05:56.145Z,983.98
2019-05-18T12:06:56.139Z,984.01
2019-05-18T12:07:56.131Z,983.98
2019-05-18T12:08:58.572Z,984.00
2019-05-18T12:09:56.103Z,983.94
2019-05-18T12:10:56.391Z,983.95
2019-05-18T12:11:56.077Z,983.92
2019-05-18T12:12:56.069Z,983.85
2019-05-18T12:13:56.069Z,983.88
2019-05-18T12:14:56.061Z,983.78
2019-05-18T12:15:56.037Z,983.86
2019-05-18T12:16:56.038Z,983.73
2019-05-18T12:17:56.021Z,983.74
2019-05-18T12:18:57.639Z,983.73
2019-05-18T12:19:56.030Z,983.72
2019-05-18T12:20:55.999Z,983.66
2019-05-18T12:21:55.992Z,983.62
2019-05-18T12:22:55.957Z,983.59
2019-05-18T12:23:55.955Z,983.62
2019-05-18T12:24:55.968Z,983.62
2019-05-18T12:25:55.948Z,983.58
2019-05-18T12:26:55.917Z,983.58
2019-05-18T12:27:56.045Z,983.52